Elizabethtown, Kentucky
Current Conditions -  °F | °C
As of 2:16 PM on Tuesday 21 Oct 2014 (Local Time) from KFTK Reporting Station
Broken Clouds Broken Clouds  
Wind Chill: 59°   Ceiling: 4900
Heat Index: 59°   Visibility: 10mi
Dew Point: 43°   Wind: 13mph
Humidity: 55%   Direction: 310°NW
Pressure: 30.05"   Gusts: 21mph
Location:  37.69°N, 85.86°W
Report Text: KFTK 211816Z AUTO 31011G18KT 10SM FEW039 BKN049 15/06 A3005 RMK AO2 RAB1806E1816
Loading
Personal Weather Stations






























Interactive Weather Map
Tropical Storm Tracking
New forecast layout! Learn more

10-Day Weather Forecast

Advertisements
Track Severe Weather on mobile